createdAt,value
2018-04-24T16:45:58.860Z,18.77
2018-04-24T16:48:29.210Z,19.10
2018-04-24T16:50:56.716Z,18.45
2018-04-24T16:53:24.243Z,18.60
2018-04-24T16:55:51.746Z,18.61
2018-04-24T16:58:19.287Z,18.74
2018-04-24T17:00:46.878Z,18.77
2018-04-24T17:03:14.321Z,18.29
2018-04-24T17:05:41.876Z,18.12
2018-04-24T17:08:09.423Z,18.45
2018-04-24T17:10:36.931Z,18.73
2018-04-24T17:13:04.496Z,18.20
2018-04-24T17:15:31.984Z,18.74
2018-04-24T17:17:59.513Z,18.96
2018-04-24T17:20:27.034Z,19.22
2018-04-24T17:22:54.572Z,19.34
2018-04-24T17:25:22.142Z,19.13
2018-04-24T17:27:49.701Z,18.85
2018-04-24T17:30:17.208Z,18.42
2018-04-24T17:32:44.762Z,18.36
2018-04-24T17:35:12.340Z,18.52
2018-04-24T17:37:39.866Z,18.28
2018-04-24T17:40:07.413Z,18.29
2018-04-24T17:42:34.931Z,18.31
2018-04-24T17:45:02.430Z,18.47
2018-04-24T17:47:29.973Z,18.46
2018-04-24T17:49:57.582Z,18.29
2018-04-24T17:52:25.025Z,18.12
2018-04-24T17:54:52.558Z,18.11
2018-04-24T17:57:20.075Z,18.16
2018-04-24T17:59:47.607Z,17.96
2018-04-24T18:02:15.129Z,18.00
2018-04-24T18:04:42.687Z,18.01
2018-04-24T18:07:10.731Z,17.77
2018-04-24T18:09:38.302Z,17.88
2018-04-24T18:12:05.849Z,18.06
2018-04-24T18:14:36.918Z,17.72
2018-04-24T18:17:05.285Z,17.79
2018-04-24T18:19:32.835Z,17.80
2018-04-24T18:22:00.334Z,17.90
2018-04-24T18:24:27.834Z,17.78
2018-04-24T18:26:55.545Z,17.69
2018-04-24T18:29:23.076Z,17.46
2018-04-24T18:31:50.569Z,17.39
2018-04-24T18:34:18.045Z,17.52
2018-04-24T18:36:45.504Z,17.48
2018-04-24T18:39:12.989Z,17.53
2018-04-24T18:41:40.501Z,17.56
2018-04-24T18:44:08.009Z,17.53
2018-04-24T18:46:35.470Z,17.45
2018-04-24T18:49:02.962Z,17.26
2018-04-24T18:51:30.426Z,17.31
2018-04-24T18:53:57.904Z,17.20
2018-04-24T18:56:25.378Z,17.21
2018-04-24T18:58:52.862Z,17.21
2018-04-24T19:01:20.368Z,17.16
2018-04-24T19:03:47.846Z,17.14
2018-04-24T19:06:15.306Z,17.06
2018-04-24T19:08:42.793Z,17.06
2018-04-24T19:11:10.256Z,16.84
2018-04-24T19:13:37.741Z,16.85
2018-04-24T19:16:05.209Z,16.80
2018-04-24T19:18:38.247Z,16.89
2018-04-24T19:21:05.706Z,16.94
2018-04-24T19:23:33.270Z,16.96
2018-04-24T19:26:00.668Z,16.93
2018-04-24T19:28:28.151Z,16.95
2018-04-24T19:30:55.650Z,16.93
2018-04-24T19:33:23.109Z,16.92
2018-04-24T19:35:50.598Z,16.82
2018-04-24T19:38:18.053Z,16.76
2018-04-24T19:40:51.213Z,16.68
2018-04-24T19:43:18.678Z,16.50
2018-04-24T19:45:46.163Z,16.34
2018-04-24T19:48:19.267Z,16.43
2018-04-24T19:50:46.823Z,16.45
2018-04-24T19:53:14.297Z,16.44
2018-04-24T19:55:41.826Z,16.22
2018-04-24T19:58:09.370Z,16.21
2018-04-24T20:00:36.850Z,16.24
2018-04-24T20:03:04.313Z,16.25
2018-04-24T20:05:31.836Z,16.09
2018-04-24T20:07:59.297Z,16.03
2018-04-24T20:10:26.841Z,16.08
2018-04-24T20:12:54.391Z,16.16
2018-04-24T20:15:21.869Z,16.10
2018-04-24T20:17:49.341Z,16.24
2018-04-24T20:20:16.833Z,16.25
2018-04-24T20:22:44.403Z,16.27
2018-04-24T20:25:11.887Z,16.01
2018-04-24T20:27:39.354Z,15.85
2018-04-24T20:30:06.838Z,15.91
2018-04-24T20:32:34.295Z,15.90
2018-04-24T20:35:01.766Z,15.93
2018-04-24T20:37:29.265Z,15.77
2018-04-24T20:39:56.748Z,15.88
2018-04-24T20:42:24.210Z,15.99
2018-04-24T20:44:51.698Z,16.02
2018-04-24T20:47:19.175Z,15.93
2018-04-24T20:49:46.628Z,15.79
2018-04-24T20:52:14.110Z,15.86
2018-04-24T20:54:41.572Z,15.95
2018-04-24T20:57:09.054Z,15.97
2018-04-24T20:59:36.537Z,16.03
2018-04-24T21:02:04.014Z,16.03
2018-04-24T21:04:31.466Z,15.97
2018-04-24T21:06:58.960Z,15.91
2018-04-24T21:09:26.439Z,15.85
2018-04-24T21:11:53.909Z,15.81
2018-04-24T21:14:21.377Z,15.69
2018-04-24T21:16:48.859Z,15.64
2018-04-24T21:19:16.331Z,15.33
2018-04-24T21:21:46.939Z,15.18
2018-04-24T21:24:14.393Z,15.12
2018-04-24T21:26:41.871Z,14.99
2018-04-24T21:29:09.443Z,14.92
2018-04-24T21:31:36.925Z,14.87
2018-04-24T21:34:04.377Z,14.80
2018-04-24T21:36:31.857Z,14.69
2018-04-24T21:38:59.317Z,14.70
2018-04-24T21:41:26.810Z,14.78
2018-04-24T21:43:54.276Z,14.90
2018-04-24T21:46:21.785Z,14.84
2018-04-24T21:48:49.250Z,14.80
2018-04-24T21:51:16.726Z,14.62
2018-04-24T21:53:44.189Z,14.53
2018-04-24T21:56:11.679Z,14.45
2018-04-24T21:58:39.139Z,14.51
2018-04-24T22:01:06.634Z,14.48
2018-04-24T22:03:34.090Z,14.36
2018-04-24T22:06:01.584Z,14.34
2018-04-24T22:08:29.044Z,14.30
2018-04-24T22:10:56.509Z,14.22
2018-04-24T22:13:23.989Z,14.01
2018-04-24T22:15:51.458Z,13.78
2018-04-24T22:18:18.945Z,13.70
2018-04-24T22:20:46.411Z,13.64
2018-04-24T22:23:13.914Z,13.69
2018-04-24T22:25:41.378Z,13.70
2018-04-24T22:28:08.862Z,13.62
2018-04-24T22:30:36.332Z,13.70
2018-04-24T22:33:03.940Z,13.73
2018-04-24T22:35:31.382Z,13.68
2018-04-24T22:37:58.865Z,13.64
2018-04-24T22:40:26.327Z,13.60
2018-04-24T22:42:53.810Z,13.62
2018-04-24T22:45:21.266Z,13.48
2018-04-24T22:47:48.749Z,13.50
2018-04-24T22:50:16.205Z,13.42
2018-04-24T22:52:44.053Z,13.47
2018-04-24T22:55:11.501Z,13.39
2018-04-24T22:57:38.980Z,13.36
2018-04-24T23:00:06.441Z,13.27
2018-04-24T23:02:33.922Z,13.29
2018-04-24T23:05:01.382Z,13.32
2018-04-24T23:07:28.873Z,13.38
2018-04-24T23:09:56.212Z,13.35
2018-04-24T23:12:35.526Z,13.28
2018-04-24T23:15:14.865Z,13.12
2018-04-24T23:17:54.179Z,13.15
2018-04-24T23:20:21.111Z,13.12
2018-04-24T23:22:48.593Z,13.09
2018-04-24T23:25:16.051Z,13.07
2018-04-24T23:27:43.533Z,12.96
2018-04-24T23:30:10.989Z,12.89
2018-04-24T23:32:38.475Z,12.92
2018-04-24T23:35:05.937Z,12.96
2018-04-24T23:37:33.389Z,13.08
2018-04-24T23:40:00.881Z,13.04
2018-04-24T23:42:28.351Z,13.03
2018-04-24T23:44:55.834Z,12.90
2018-04-24T23:47:23.298Z,12.80
2018-04-24T23:49:50.788Z,12.67
2018-04-24T23:52:18.248Z,12.58
2018-04-24T23:54:45.770Z,12.49
2018-04-24T23:57:13.230Z,12.45
2018-04-24T23:59:40.718Z,12.42
